KRRT

Warroad International Memorial Airport

Warroad, Minnesota, USA
METAR KRRT 211955Z AUTO 33003KT 10SM OVC008 M03/M06 A3005 RMK AO2
Observed Flight Rules
Jan-21 @ 19:55 UTC (23 minutes ago) Instrument Flight Rules
Wind Visibility Clouds
330° at 3 knots 10 miles
  • Overcast at 800' AGL
Temperatures Readings
Current -3°C / 27°F
Dewpoint -6°C / 21°F
Humidity 80%
Altimeter 30.05" Hg
Pressure 1018 hPa
Elevation 327
METAR KRRT 211955Z AUTO 33003KT 10SM OVC008 M03/M06 A3005 RMK AO2
Observed Flight Rules
Jan-21 @ 19:55 UTC
(23 minutes ago)
IFR
Wind Visibility
330° at 3 knots 10 miles
Clouds
  • Overcast at 800' AGL
Temperature Dewpoint
-3°C / 27°F -6°C / 21°F
Humidity Altimeter Pressure
80% 30.05" Hg 1018 hPa